sensor_id;sensor_type;location;lat;lon;timestamp;temperature;humidity
66144;SHT31;52947;50.842;6.084;2024-03-23T00:53:15;9.62;92.00
66144;SHT31;52947;50.842;6.084;2024-03-23T00:55:42;9.22;90.34
66144;SHT31;52947;50.842;6.084;2024-03-23T00:58:08;9.48;91.45
66144;SHT31;52947;50.842;6.084;2024-03-23T01:00:35;9.29;90.40
66144;SHT31;52947;50.842;6.084;2024-03-23T01:03:01;9.51;92.59
66144;SHT31;52947;50.842;6.084;2024-03-23T01:05:28;9.47;91.61
66144;SHT31;52947;50.842;6.084;2024-03-23T01:07:54;9.55;90.90
66144;SHT31;52947;50.842;6.084;2024-03-23T01:10:23;9.43;91.87
66144;SHT31;52947;50.842;6.084;2024-03-23T01:12:49;9.17;90.77
66144;SHT31;52947;50.842;6.084;2024-03-23T01:15:16;8.69;92.16
66144;SHT31;52947;50.842;6.084;2024-03-23T01:17:42;8.82;91.05
66144;SHT31;52947;50.842;6.084;2024-03-23T01:20:09;9.03;92.47
66144;SHT31;52947;50.842;6.084;2024-03-23T01:22:36;8.56;90.85
66144;SHT31;52947;50.842;6.084;2024-03-23T01:25:03;7.96;89.24
66144;SHT31;52947;50.842;6.084;2024-03-23T01:27:31;7.93;91.64
66144;SHT31;52947;50.842;6.084;2024-03-23T01:29:58;8.23;91.60
66144;SHT31;52947;50.842;6.084;2024-03-23T01:32:24;7.96;90.94
66144;SHT31;52947;50.842;6.084;2024-03-23T01:34:51;7.75;91.59
66144;SHT31;52947;50.842;6.084;2024-03-23T01:37:17;8.13;92.50
66144;SHT31;52947;50.842;6.084;2024-03-23T01:39:44;7.94;90.75
66144;SHT31;52947;50.842;6.084;2024-03-23T01:42:10;8.33;92.38
66144;SHT31;52947;50.842;6.084;2024-03-23T01:44:39;8.40;90.38
66144;SHT31;52947;50.842;6.084;2024-03-23T01:47:06;8.10;90.32
66144;SHT31;52947;50.842;6.084;2024-03-23T01:49:33;8.17;91.71
66144;SHT31;52947;50.842;6.084;2024-03-23T01:52:00;8.31;88.69
66144;SHT31;52947;50.842;6.084;2024-03-23T01:54:27;8.58;90.79
66144;SHT31;52947;50.842;6.084;2024-03-23T01:56:54;8.47;89.54
66144;SHT31;52947;50.842;6.084;2024-03-23T01:59:21;8.89;90.46
66144;SHT31;52947;50.842;6.084;2024-03-23T02:01:51;9.16;91.20
66144;SHT31;52947;50.842;6.084;2024-03-23T02:04:21;8.92;89.29
66144;SHT31;52947;50.842;6.084;2024-03-23T02:06:47;9.07;88.71
66144;SHT31;52947;50.842;6.084;2024-03-23T02:09:14;9.23;89.70
66144;SHT31;52947;50.842;6.084;2024-03-23T02:11:41;9.02;88.08
66144;SHT31;52947;50.842;6.084;2024-03-23T02:14:08;9.12;89.26
66144;SHT31;52947;50.842;6.084;2024-03-23T02:16:34;9.07;88.54
66144;SHT31;52947;50.842;6.084;2024-03-23T02:19:02;9.58;89.71
66144;SHT31;52947;50.842;6.084;2024-03-23T02:21:28;9.89;88.42
66144;SHT31;52947;50.842;6.084;2024-03-23T02:24:00;9.94;86.85
66144;SHT31;52947;50.842;6.084;2024-03-23T02:26:26;10.20;86.54
66144;SHT31;52947;50.842;6.084;2024-03-23T02:28:53;10.20;85.84
66144;SHT31;52947;50.842;6.084;2024-03-23T02:31:19;10.03;88.25
66144;SHT31;52947;50.842;6.084;2024-03-23T02:33:46;10.06;87.82
66144;SHT31;52947;50.842;6.084;2024-03-23T02:36:12;9.71;85.33
66144;SHT31;52947;50.842;6.084;2024-03-23T02:38:39;9.62;88.05
66144;SHT31;52947;50.842;6.084;2024-03-23T02:41:06;9.62;87.68
66144;SHT31;52947;50.842;6.084;2024-03-23T02:43:33;9.62;88.63
66144;SHT31;52947;50.842;6.084;2024-03-23T02:45:59;9.78;88.13
66144;SHT31;52947;50.842;6.084;2024-03-23T02:48:27;9.84;86.78
66144;SHT31;52947;50.842;6.084;2024-03-23T02:50:53;10.25;88.17
66144;SHT31;52947;50.842;6.084;2024-03-23T02:53:20;10.30;86.60
66144;SHT31;52947;50.842;6.084;2024-03-23T02:55:46;10.20;85.92
66144;SHT31;52947;50.842;6.084;2024-03-23T02:58:14;9.87;86.35
66144;SHT31;52947;50.842;6.084;2024-03-23T03:00:41;9.48;83.93
66144;SHT31;52947;50.842;6.084;2024-03-23T03:03:08;8.92;86.69
66144;SHT31;52947;50.842;6.084;2024-03-23T03:05:34;8.64;89.21
66144;SHT31;52947;50.842;6.084;2024-03-23T03:08:01;8.54;89.33
66144;SHT31;52947;50.842;6.084;2024-03-23T03:10:27;8.23;89.71
66144;SHT31;52947;50.842;6.084;2024-03-23T03:12:54;8.03;92.63
66144;SHT31;52947;50.842;6.084;2024-03-23T03:15:22;7.93;91.56
66144;SHT31;52947;50.842;6.084;2024-03-23T03:17:49;7.97;90.99
66144;SHT31;52947;50.842;6.084;2024-03-23T03:20:15;7.96;91.05
66144;SHT31;52947;50.842;6.084;2024-03-23T03:22:43;8.14;91.11
66144;SHT31;52947;50.842;6.084;2024-03-23T03:25:09;7.69;89.52
66144;SHT31;52947;50.842;6.084;2024-03-23T03:27:36;7.66;92.13
66144;SHT31;52947;50.842;6.084;2024-03-23T03:30:03;7.62;91.80
66144;SHT31;52947;50.842;6.084;2024-03-23T03:32:33;7.62;91.63
66144;SHT31;52947;50.842;6.084;2024-03-23T03:34:59;7.42;91.54
66144;SHT31;52947;50.842;6.084;2024-03-23T03:37:26;7.26;91.08
66144;SHT31;52947;50.842;6.084;2024-03-23T03:39:52;7.29;92.63
66144;SHT31;52947;50.842;6.084;2024-03-23T03:42:19;7.16;90.68
66144;SHT31;52947;50.842;6.084;2024-03-23T03:44:45;7.31;93.51
66144;SHT31;52947;50.842;6.084;2024-03-23T03:47:12;7.31;92.56
66144;SHT31;52947;50.842;6.084;2024-03-23T03:49:40;7.21;91.42
66144;SHT31;52947;50.842;6.084;2024-03-23T03:52:07;7.34;92.28
66144;SHT31;52947;50.842;6.084;2024-03-23T03:54:33;7.52;90.75
66144;SHT31;52947;50.842;6.084;2024-03-23T03:57:00;7.07;90.59
66144;SHT31;52947;50.842;6.084;2024-03-23T03:59:26;6.95;91.63
66144;SHT31;52947;50.842;6.084;2024-03-23T04:01:53;6.69;92.54
66144;SHT31;52947;50.842;6.084;2024-03-23T04:04:19;6.77;92.73
66144;SHT31;52947;50.842;6.084;2024-03-23T04:06:49;6.69;92.43
66144;SHT31;52947;50.842;6.084;2024-03-23T04:09:15;6.81;93.17
66144;SHT31;52947;50.842;6.084;2024-03-23T04:11:42;6.84;93.99
66144;SHT31;52947;50.842;6.084;2024-03-23T04:14:11;6.97;92.86
66144;SHT31;52947;50.842;6.084;2024-03-23T04:16:38;7.01;92.95
66144;SHT31;52947;50.842;6.084;2024-03-23T04:19:04;6.93;91.75
66144;SHT31;52947;50.842;6.084;2024-03-23T04:21:32;6.90;92.46
66144;SHT31;52947;50.842;6.084;2024-03-23T04:23:59;6.70;93.05
66144;SHT31;52947;50.842;6.084;2024-03-23T04:26:26;6.54;93.46
66144;SHT31;52947;50.842;6.084;2024-03-23T04:28:53;6.47;93.84
66144;SHT31;52947;50.842;6.084;2024-03-23T04:31:20;6.63;93.62
66144;SHT31;52947;50.842;6.084;2024-03-23T04:33:47;6.60;95.29
66144;SHT31;52947;50.842;6.084;2024-03-23T04:36:14;6.63;93.66
66144;SHT31;52947;50.842;6.084;2024-03-23T04:38:40;6.44;94.08
66144;SHT31;52947;50.842;6.084;2024-03-23T04:41:08;6.79;94.14
66144;SHT31;52947;50.842;6.084;2024-03-23T04:43:54;6.44;92.91
66144;SHT31;52947;50.842;6.084;2024-03-23T04:46:21;6.57;93.87
66144;SHT31;52947;50.842;6.084;2024-03-23T04:48:48;6.60;93.64
66144;SHT31;52947;50.842;6.084;2024-03-23T04:51:20;6.36;93.94
66144;SHT31;52947;50.842;6.084;2024-03-23T04:53:48;6.46;93.80
66144;SHT31;52947;50.842;6.084;2024-03-23T04:56:16;6.32;94.16
66144;SHT31;52947;50.842;6.084;2024-03-23T04:58:44;6.39;94.29
66144;SHT31;52947;50.842;6.084;2024-03-23T05:01:10;6.29;93.87
66144;SHT31;52947;50.842;6.084;2024-03-23T05:03:38;6.21;94.10
66144;SHT31;52947;50.842;6.084;2024-03-23T05:06:05;6.19;94.30
66144;SHT31;52947;50.842;6.084;2024-03-23T05:08:31;6.25;95.70
66144;SHT31;52947;50.842;6.084;2024-03-23T05:10:58;6.16;94.53
66144;SHT31;52947;50.842;6.084;2024-03-23T05:13:25;6.30;93.88
66144;SHT31;52947;50.842;6.084;2024-03-23T05:15:53;6.13;94.34
66144;SHT31;52947;50.842;6.084;2024-03-23T05:18:19;6.22;94.50
66144;SHT31;52947;50.842;6.084;2024-03-23T05:20:46;6.21;94.12
66144;SHT31;52947;50.842;6.084;2024-03-23T05:23:12;6.26;94.68
66144;SHT31;52947;50.842;6.084;2024-03-23T05:25:39;6.30;94.17
66144;SHT31;52947;50.842;6.084;2024-03-23T05:28:05;6.29;95.04
66144;SHT31;52947;50.842;6.084;2024-03-23T05:30:34;6.19;95.19
66144;SHT31;52947;50.842;6.084;2024-03-23T05:33:00;6.22;95.35
66144;SHT31;52947;50.842;6.084;2024-03-23T05:35:27;6.01;94.62
66144;SHT31;52947;50.842;6.084;2024-03-23T05:37:53;5.91;94.97
66144;SHT31;52947;50.842;6.084;2024-03-23T05:40:20;6.05;95.24
66144;SHT31;52947;50.842;6.084;2024-03-23T05:42:46;6.13;95.13
66144;SHT31;52947;50.842;6.084;2024-03-23T05:45:14;6.16;93.44
66144;SHT31;52947;50.842;6.084;2024-03-23T05:47:45;6.19;94.09
66144;SHT31;52947;50.842;6.084;2024-03-23T05:50:12;6.18;94.09
66144;SHT31;52947;50.842;6.084;2024-03-23T05:52:38;6.16;94.44
66144;SHT31;52947;50.842;6.084;2024-03-23T05:55:06;6.02;94.61
66144;SHT31;52947;50.842;6.084;2024-03-23T05:57:32;5.88;95.12
66144;SHT31;52947;50.842;6.084;2024-03-23T05:59:59;5.91;94.74
66144;SHT31;52947;50.842;6.084;2024-03-23T06:02:26;6.08;95.18
66144;SHT31;52947;50.842;6.084;2024-03-23T06:04:54;6.13;94.54
66144;SHT31;52947;50.842;6.084;2024-03-23T06:07:21;6.23;94.05
66144;SHT31;52947;50.842;6.084;2024-03-23T06:12:27;6.52;93.45
66144;SHT31;52947;50.842;6.084;2024-03-23T06:14:54;6.80;93.07
66144;SHT31;52947;50.842;6.084;2024-03-23T06:17:21;7.19;92.60
66144;SHT31;52947;50.842;6.084;2024-03-23T06:19:47;7.18;92.82
66144;SHT31;52947;50.842;6.084;2024-03-23T06:22:16;7.11;92.61
66144;SHT31;52947;50.842;6.084;2024-03-23T06:24:42;7.69;92.29
66144;SHT31;52947;50.842;6.084;2024-03-23T06:27:09;7.97;90.49
66144;SHT31;52947;50.842;6.084;2024-03-23T06:29:35;8.61;89.70
66144;SHT31;52947;50.842;6.084;2024-03-23T06:32:02;9.23;88.37
66144;SHT31;52947;50.842;6.084;2024-03-23T06:34:29;10.16;85.67
66144;SHT31;52947;50.842;6.084;2024-03-23T06:36:56;10.76;83.63
66144;SHT31;52947;50.842;6.084;2024-03-23T06:39:23;11.54;82.06
66144;SHT31;52947;50.842;6.084;2024-03-23T06:41:54;11.52;79.94
66144;SHT31;52947;50.842;6.084;2024-03-23T06:44:20;11.92;81.37
66144;SHT31;52947;50.842;6.084;2024-03-23T06:46:47;12.78;77.42
66144;SHT31;52947;50.842;6.084;2024-03-23T06:49:14;13.77;76.16
66144;SHT31;52947;50.842;6.084;2024-03-23T06:51:42;13.20;76.22
66144;SHT31;52947;50.842;6.084;2024-03-23T06:54:08;14.05;74.78
66144;SHT31;52947;50.842;6.084;2024-03-23T06:56:36;14.17;74.08
66144;SHT31;52947;50.842;6.084;2024-03-23T06:59:02;13.05;76.20
66144;SHT31;52947;50.842;6.084;2024-03-23T07:01:29;12.30;78.16
66144;SHT31;52947;50.842;6.084;2024-03-23T07:03:55;11.35;80.74
66144;SHT31;52947;50.842;6.084;2024-03-23T07:06:22;11.30;79.25
66144;SHT31;52947;50.842;6.084;2024-03-23T07:08:48;10.74;82.00
66144;SHT31;52947;50.842;6.084;2024-03-23T07:11:18;10.83;82.22
66144;SHT31;52947;50.842;6.084;2024-03-23T07:13:49;11.10;82.39
66144;SHT31;52947;50.842;6.084;2024-03-23T07:16:17;11.12;81.19
66144;SHT31;52947;50.842;6.084;2024-03-23T07:18:43;10.59;82.26
66144;SHT31;52947;50.842;6.084;2024-03-23T07:21:10;10.45;82.41
66144;SHT31;52947;50.842;6.084;2024-03-23T07:23:36;10.50;83.96
66144;SHT31;52947;50.842;6.084;2024-03-23T07:26:04;10.45;83.53
66144;SHT31;52947;50.842;6.084;2024-03-23T07:28:30;10.94;81.90
66144;SHT31;52947;50.842;6.084;2024-03-23T07:31:04;10.90;82.00
66144;SHT31;52947;50.842;6.084;2024-03-23T07:33:31;10.99;81.71
66144;SHT31;52947;50.842;6.084;2024-03-23T07:35:58;10.18;83.14
66144;SHT31;52947;50.842;6.084;2024-03-23T07:38:26;10.22;83.20
66144;SHT31;52947;50.842;6.084;2024-03-23T07:41:03;10.13;84.66
66144;SHT31;52947;50.842;6.084;2024-03-23T07:43:29;10.13;84.12
66144;SHT31;52947;50.842;6.084;2024-03-23T07:45:56;10.42;83.48
66144;SHT31;52947;50.842;6.084;2024-03-23T07:48:23;10.79;84.41
66144;SHT31;52947;50.842;6.084;2024-03-23T07:51:01;12.61;77.49
66144;SHT31;52947;50.842;6.084;2024-03-23T07:53:27;14.54;73.76
66144;SHT31;52947;50.842;6.084;2024-03-23T07:55:55;13.22;73.92
66144;SHT31;52947;50.842;6.084;2024-03-23T07:58:21;12.37;75.30
66144;SHT31;52947;50.842;6.084;2024-03-23T08:00:48;12.44;75.45
66144;SHT31;52947;50.842;6.084;2024-03-23T08:03:15;11.69;77.39
66144;SHT31;52947;50.842;6.084;2024-03-23T08:05:43;11.14;79.33
66144;SHT31;52947;50.842;6.084;2024-03-23T08:08:09;10.84;81.38
66144;SHT31;52947;50.842;6.084;2024-03-23T08:10:36;10.76;81.62
66144;SHT31;52947;50.842;6.084;2024-03-23T08:13:03;10.59;80.63
66144;SHT31;52947;50.842;6.084;2024-03-23T08:15:31;10.52;81.91
66144;SHT31;52947;50.842;6.084;2024-03-23T08:17:59;10.22;81.55
66144;SHT31;52947;50.842;6.084;2024-03-23T08:20:26;9.92;82.28
66144;SHT31;52947;50.842;6.084;2024-03-23T08:27:19;10.42;81.89
66144;SHT31;52947;50.842;6.084;2024-03-23T08:33:57;10.36;81.16
66144;SHT31;52947;50.842;6.084;2024-03-23T08:36:25;10.84;80.37
66144;SHT31;52947;50.842;6.084;2024-03-23T08:38:51;10.64;80.73
66144;SHT31;52947;50.842;6.084;2024-03-23T08:41:19;9.95;81.37
66144;SHT31;52947;50.842;6.084;2024-03-23T08:43:47;11.43;79.71
66144;SHT31;52947;50.842;6.084;2024-03-23T08:46:15;11.66;77.20
66144;SHT31;52947;50.842;6.084;2024-03-23T08:48:42;11.06;78.55
66144;SHT31;52947;50.842;6.084;2024-03-23T08:51:12;10.64;78.53
66144;SHT31;52947;50.842;6.084;2024-03-23T08:53:38;11.17;78.82
66144;SHT31;52947;50.842;6.084;2024-03-23T08:56:06;10.84;79.63
66144;SHT31;52947;50.842;6.084;2024-03-23T08:58:40;12.34;75.32
66144;SHT31;52947;50.842;6.084;2024-03-23T09:01:09;12.40;76.67
66144;SHT31;52947;50.842;6.084;2024-03-23T09:03:36;13.80;72.97
66144;SHT31;52947;50.842;6.084;2024-03-23T09:06:07;15.53;67.92
66144;SHT31;52947;50.842;6.084;2024-03-23T09:08:33;16.02;65.87
66144;SHT31;52947;50.842;6.084;2024-03-23T09:11:04;16.42;66.17
66144;SHT31;52947;50.842;6.084;2024-03-23T09:13:32;16.59;64.06
66144;SHT31;52947;50.842;6.084;2024-03-23T09:15:59;16.39;65.52
66144;SHT31;52947;50.842;6.084;2024-03-23T09:18:27;15.53;65.55
66144;SHT31;52947;50.842;6.084;2024-03-23T09:20:54;13.05;69.65
66144;SHT31;52947;50.842;6.084;2024-03-23T09:23:20;11.75;73.01
66144;SHT31;52947;50.842;6.084;2024-03-23T09:25:47;10.99;74.83
66144;SHT31;52947;50.842;6.084;2024-03-23T09:28:13;10.40;76.69
66144;SHT31;52947;50.842;6.084;2024-03-23T09:30:40;10.40;78.14
66144;SHT31;52947;50.842;6.084;2024-03-23T09:33:08;10.40;77.72
66144;SHT31;52947;50.842;6.084;2024-03-23T09:35:38;10.39;78.81
66144;SHT31;52947;50.842;6.084;2024-03-23T09:38:04;10.57;79.73
66144;SHT31;52947;50.842;6.084;2024-03-23T09:40:33;10.05;78.32
66144;SHT31;52947;50.842;6.084;2024-03-23T09:42:59;10.29;78.42
66144;SHT31;52947;50.842;6.084;2024-03-23T09:45:27;10.28;76.78
66144;SHT31;52947;50.842;6.084;2024-03-23T09:47:54;10.93;75.03
66144;SHT31;52947;50.842;6.084;2024-03-23T09:50:21;12.43;72.48
66144;SHT31;52947;50.842;6.084;2024-03-23T09:52:49;11.55;74.07
66144;SHT31;52947;50.842;6.084;2024-03-23T09:55:16;13.66;72.02
66144;SHT31;52947;50.842;6.084;2024-03-23T09:57:42;15.04;68.87
66144;SHT31;52947;50.842;6.084;2024-03-23T10:00:10;15.53;66.56
66144;SHT31;52947;50.842;6.084;2024-03-23T10:02:37;15.72;65.03
66144;SHT31;52947;50.842;6.084;2024-03-23T10:05:19;15.97;64.68
66144;SHT31;52947;50.842;6.084;2024-03-23T10:07:46;16.12;63.43
66144;SHT31;52947;50.842;6.084;2024-03-23T10:10:15;15.53;64.88
66144;SHT31;52947;50.842;6.084;2024-03-23T10:12:44;15.97;62.80
66144;SHT31;52947;50.842;6.084;2024-03-23T10:15:18;15.41;63.91
66144;SHT31;52947;50.842;6.084;2024-03-23T10:17:44;14.73;66.01
66144;SHT31;52947;50.842;6.084;2024-03-23T10:20:12;13.59;69.24
66144;SHT31;52947;50.842;6.084;2024-03-23T10:22:38;12.61;70.62
66144;SHT31;52947;50.842;6.084;2024-03-23T10:25:09;12.10;73.85
66144;SHT31;52947;50.842;6.084;2024-03-23T10:27:37;11.45;73.41
66144;SHT31;52947;50.842;6.084;2024-03-23T10:30:09;11.48;74.09
66144;SHT31;52947;50.842;6.084;2024-03-23T10:32:35;11.96;73.40
66144;SHT31;52947;50.842;6.084;2024-03-23T10:35:16;11.01;71.97
66144;SHT31;52947;50.842;6.084;2024-03-23T10:37:45;11.10;72.87
66144;SHT31;52947;50.842;6.084;2024-03-23T10:40:13;10.81;74.02
66144;SHT31;52947;50.842;6.084;2024-03-23T10:42:40;12.54;69.99
66144;SHT31;52947;50.842;6.084;2024-03-23T10:45:08;13.63;66.52
66144;SHT31;52947;50.842;6.084;2024-03-23T10:47:36;13.98;64.36
66144;SHT31;52947;50.842;6.084;2024-03-23T10:50:04;13.76;65.42
66144;SHT31;52947;50.842;6.084;2024-03-23T10:52:31;14.31;64.40
66144;SHT31;52947;50.842;6.084;2024-03-23T10:54:59;14.80;63.96
66144;SHT31;52947;50.842;6.084;2024-03-23T10:57:30;15.11;65.16
66144;SHT31;52947;50.842;6.084;2024-03-23T11:00:02;14.41;66.89
66144;SHT31;52947;50.842;6.084;2024-03-23T11:02:28;13.16;67.62
66144;SHT31;52947;50.842;6.084;2024-03-23T11:04:55;13.05;68.07
66144;SHT31;52947;50.842;6.084;2024-03-23T11:07:31;12.65;67.96
66144;SHT31;52947;50.842;6.084;2024-03-23T11:09:58;13.09;66.54
66144;SHT31;52947;50.842;6.084;2024-03-23T11:12:26;12.92;66.68
66144;SHT31;52947;50.842;6.084;2024-03-23T11:14:54;12.92;67.90
66144;SHT31;52947;50.842;6.084;2024-03-23T11:17:26;12.27;65.11
66144;SHT31;52947;50.842;6.084;2024-03-23T11:19:54;13.01;63.80
66144;SHT31;52947;50.842;6.084;2024-03-23T11:22:39;13.43;64.26
66144;SHT31;52947;50.842;6.084;2024-03-23T11:25:16;12.48;66.84
66144;SHT31;52947;50.842;6.084;2024-03-23T11:27:43;13.77;64.46
66144;SHT31;52947;50.842;6.084;2024-03-23T11:30:15;13.59;64.35
66144;SHT31;52947;50.842;6.084;2024-03-23T11:32:43;12.88;65.18
66144;SHT31;52947;50.842;6.084;2024-03-23T11:35:24;13.32;64.38
66144;SHT31;52947;50.842;6.084;2024-03-23T11:38:04;14.11;61.42
66144;SHT31;52947;50.842;6.084;2024-03-23T11:40:32;13.73;65.15
66144;SHT31;52947;50.842;6.084;2024-03-23T11:42:59;15.36;63.04
66144;SHT31;52947;50.842;6.084;2024-03-23T11:45:27;14.45;59.48
66144;SHT31;52947;50.842;6.084;2024-03-23T11:48:05;12.31;64.24
66144;SHT31;52947;50.842;6.084;2024-03-23T11:50:33;13.15;64.20
66144;SHT31;52947;50.842;6.084;2024-03-23T11:53:12;14.72;62.41
66144;SHT31;52947;50.842;6.084;2024-03-23T11:55:46;15.84;60.19
66144;SHT31;52947;50.842;6.084;2024-03-23T11:58:13;13.97;63.52
66144;SHT31;52947;50.842;6.084;2024-03-23T12:00:40;13.46;64.86
66144;SHT31;52947;50.842;6.084;2024-03-23T12:03:07;12.12;67.60
66144;SHT31;52947;50.842;6.084;2024-03-23T12:05:36;11.03;70.69
66144;SHT31;52947;50.842;6.084;2024-03-23T12:08:17;10.59;73.83
66144;SHT31;52947;50.842;6.084;2024-03-23T12:10:47;10.26;73.49
66144;SHT31;52947;50.842;6.084;2024-03-23T12:13:15;11.90;69.77
66144;SHT31;52947;50.842;6.084;2024-03-23T12:15:43;14.11;66.04
66144;SHT31;52947;50.842;6.084;2024-03-23T12:18:11;15.34;63.00
66144;SHT31;52947;50.842;6.084;2024-03-23T12:20:39;16.57;57.68
66144;SHT31;52947;50.842;6.084;2024-03-23T12:23:09;14.90;61.19
66144;SHT31;52947;50.842;6.084;2024-03-23T12:25:39;13.13;62.75
66144;SHT31;52947;50.842;6.084;2024-03-23T12:28:06;12.27;67.31
66144;SHT31;52947;50.842;6.084;2024-03-23T12:30:35;11.83;70.96
66144;SHT31;52947;50.842;6.084;2024-03-23T12:33:01;11.49;72.03
66144;SHT31;52947;50.842;6.084;2024-03-23T12:35:30;11.06;72.56
66144;SHT31;52947;50.842;6.084;2024-03-23T12:37:56;11.58;73.16
66144;SHT31;52947;50.842;6.084;2024-03-23T12:40:23;13.73;69.91
66144;SHT31;52947;50.842;6.084;2024-03-23T12:42:49;13.74;68.41
66144;SHT31;52947;50.842;6.084;2024-03-23T12:45:16;13.57;68.38
66144;SHT31;52947;50.842;6.084;2024-03-23T12:47:42;13.25;69.98
66144;SHT31;52947;50.842;6.084;2024-03-23T12:50:10;12.71;71.60
66144;SHT31;52947;50.842;6.084;2024-03-23T12:52:38;11.71;69.81
66144;SHT31;52947;50.842;6.084;2024-03-23T12:55:05;12.17;71.38
66144;SHT31;52947;50.842;6.084;2024-03-23T12:57:31;13.39;67.89
66144;SHT31;52947;50.842;6.084;2024-03-23T12:59:59;14.46;64.17
66144;SHT31;52947;50.842;6.084;2024-03-23T13:02:26;14.48;63.25
66144;SHT31;52947;50.842;6.084;2024-03-23T13:04:53;12.31;67.93
66144;SHT31;52947;50.842;6.084;2024-03-23T13:07:20;10.97;74.48
66144;SHT31;52947;50.842;6.084;2024-03-23T13:09:51;10.09;77.58
66144;SHT31;52947;50.842;6.084;2024-03-23T13:12:17;10.22;77.11
66144;SHT31;52947;50.842;6.084;2024-03-23T13:14:46;10.91;74.95
66144;SHT31;52947;50.842;6.084;2024-03-23T13:17:12;11.06;76.42
66144;SHT31;52947;50.842;6.084;2024-03-23T13:19:39;10.08;76.37
66144;SHT31;52947;50.842;6.084;2024-03-23T13:22:05;10.66;78.72
66144;SHT31;52947;50.842;6.084;2024-03-23T13:24:32;10.85;77.88
66144;SHT31;52947;50.842;6.084;2024-03-23T13:27:00;10.93;77.87
66144;SHT31;52947;50.842;6.084;2024-03-23T13:29:27;11.10;77.39
66144;SHT31;52947;50.842;6.084;2024-03-23T13:31:53;10.94;76.86
66144;SHT31;52947;50.842;6.084;2024-03-23T13:34:20;12.64;74.99
66144;SHT31;52947;50.842;6.084;2024-03-23T13:36:47;14.10;71.10
66144;SHT31;52947;50.842;6.084;2024-03-23T13:39:14;14.07;69.73
66144;SHT31;52947;50.842;6.084;2024-03-23T13:41:42;13.49;68.81
66144;SHT31;52947;50.842;6.084;2024-03-23T13:44:12;12.37;71.95
66144;SHT31;52947;50.842;6.084;2024-03-23T13:46:38;11.00;72.39
66144;SHT31;52947;50.842;6.084;2024-03-23T13:49:06;10.73;75.55
66144;SHT31;52947;50.842;6.084;2024-03-23T13:51:32;10.06;73.73
66144;SHT31;52947;50.842;6.084;2024-03-23T13:53:59;9.58;74.58
66144;SHT31;52947;50.842;6.084;2024-03-23T13:56:26;9.06;76.07
66144;SHT31;52947;50.842;6.084;2024-03-23T13:58:55;8.78;76.57
66144;SHT31;52947;50.842;6.084;2024-03-23T14:01:22;8.82;78.37
66144;SHT31;52947;50.842;6.084;2024-03-23T14:03:50;8.52;77.96
66144;SHT31;52947;50.842;6.084;2024-03-23T14:06:16;8.17;79.96
66144;SHT31;52947;50.842;6.084;2024-03-23T14:08:43;7.48;78.85
66144;SHT31;52947;50.842;6.084;2024-03-23T14:11:09;7.12;81.02
66144;SHT31;52947;50.842;6.084;2024-03-23T14:13:37;7.22;81.35
66144;SHT31;52947;50.842;6.084;2024-03-23T14:16:04;7.90;81.00
66144;SHT31;52947;50.842;6.084;2024-03-23T14:18:32;8.78;78.41
66144;SHT31;52947;50.842;6.084;2024-03-23T14:21:00;8.78;78.48
66144;SHT31;52947;50.842;6.084;2024-03-23T14:23:27;8.69;78.62
66144;SHT31;52947;50.842;6.084;2024-03-23T14:25:56;8.45;78.57
66144;SHT31;52947;50.842;6.084;2024-03-23T14:28:23;8.58;79.25
66144;SHT31;52947;50.842;6.084;2024-03-23T14:30:49;8.41;79.71
66144;SHT31;52947;50.842;6.084;2024-03-23T14:33:16;8.04;80.34
66144;SHT31;52947;50.842;6.084;2024-03-23T14:35:51;7.69;80.86
66144;SHT31;52947;50.842;6.084;2024-03-23T14:38:19;7.83;82.36
66144;SHT31;52947;50.842;6.084;2024-03-23T14:40:45;8.30;82.11
66144;SHT31;52947;50.842;6.084;2024-03-23T14:43:12;8.80;81.14
66144;SHT31;52947;50.842;6.084;2024-03-23T14:45:48;8.88;80.14
66144;SHT31;52947;50.842;6.084;2024-03-23T14:48:32;9.13;79.26
66144;SHT31;52947;50.842;6.084;2024-03-23T14:51:01;8.85;79.38
66144;SHT31;52947;50.842;6.084;2024-03-23T14:53:30;8.47;79.57
66144;SHT31;52947;50.842;6.084;2024-03-23T14:55:57;7.94;80.14
66144;SHT31;52947;50.842;6.084;2024-03-23T14:58:26;8.16;80.79
66144;SHT31;52947;50.842;6.084;2024-03-23T15:00:52;8.23;81.13
66144;SHT31;52947;50.842;6.084;2024-03-23T15:03:19;7.98;80.18
66144;SHT31;52947;50.842;6.084;2024-03-23T15:05:52;7.89;80.73
66144;SHT31;52947;50.842;6.084;2024-03-23T15:08:21;7.93;80.57
66144;SHT31;52947;50.842;6.084;2024-03-23T15:10:47;7.77;80.88
66144;SHT31;52947;50.842;6.084;2024-03-23T15:13:15;7.65;81.64
66144;SHT31;52947;50.842;6.084;2024-03-23T15:15:42;7.55;81.94
66144;SHT31;52947;50.842;6.084;2024-03-23T15:18:11;7.39;83.17
66144;SHT31;52947;50.842;6.084;2024-03-23T15:20:38;7.25;85.44
66144;SHT31;52947;50.842;6.084;2024-03-23T15:23:05;7.05;86.37
66144;SHT31;52947;50.842;6.084;2024-03-23T15:25:33;6.67;85.62
66144;SHT31;52947;50.842;6.084;2024-03-23T15:28:00;6.25;86.28
66144;SHT31;52947;50.842;6.084;2024-03-23T15:30:27;5.98;87.36
66144;SHT31;52947;50.842;6.084;2024-03-23T15:32:55;5.99;87.65
66144;SHT31;52947;50.842;6.084;2024-03-23T15:35:21;5.91;87.97
66144;SHT31;52947;50.842;6.084;2024-03-23T15:37:49;5.98;88.63
66144;SHT31;52947;50.842;6.084;2024-03-23T15:40:16;6.16;89.39
66144;SHT31;52947;50.842;6.084;2024-03-23T15:42:44;6.28;88.72
66144;SHT31;52947;50.842;6.084;2024-03-23T15:45:10;6.40;87.95
66144;SHT31;52947;50.842;6.084;2024-03-23T15:47:37;6.46;88.23
66144;SHT31;52947;50.842;6.084;2024-03-23T15:50:04;6.46;88.44
66144;SHT31;52947;50.842;6.084;2024-03-23T15:52:35;6.52;87.50
66144;SHT31;52947;50.842;6.084;2024-03-23T15:55:02;6.60;87.27
66144;SHT31;52947;50.842;6.084;2024-03-23T15:57:32;6.94;88.45
66144;SHT31;52947;50.842;6.084;2024-03-23T16:00:00;7.28;88.07
66144;SHT31;52947;50.842;6.084;2024-03-23T16:02:27;7.42;87.52
66144;SHT31;52947;50.842;6.084;2024-03-23T16:04:53;7.34;86.92
66144;SHT31;52947;50.842;6.084;2024-03-23T16:07:20;7.09;85.37
66144;SHT31;52947;50.842;6.084;2024-03-23T16:09:47;7.07;87.67
66144;SHT31;52947;50.842;6.084;2024-03-23T16:12:14;7.00;87.74
66144;SHT31;52947;50.842;6.084;2024-03-23T16:14:40;6.88;87.90
66144;SHT31;52947;50.842;6.084;2024-03-23T16:17:08;6.87;88.18
66144;SHT31;52947;50.842;6.084;2024-03-23T16:19:34;6.77;87.08
66144;SHT31;52947;50.842;6.084;2024-03-23T16:22:02;6.71;87.62
66144;SHT31;52947;50.842;6.084;2024-03-23T16:24:28;6.73;88.35
66144;SHT31;52947;50.842;6.084;2024-03-23T16:26:55;6.64;87.10
66144;SHT31;52947;50.842;6.084;2024-03-23T16:29:21;6.66;86.32
66144;SHT31;52947;50.842;6.084;2024-03-23T16:31:48;6.76;86.98
66144;SHT31;52947;50.842;6.084;2024-03-23T16:34:15;6.80;87.25
66144;SHT31;52947;50.842;6.084;2024-03-23T16:36:42;6.80;86.98
66144;SHT31;52947;50.842;6.084;2024-03-23T16:39:08;6.77;87.39
66144;SHT31;52947;50.842;6.084;2024-03-23T16:41:36;6.77;86.88
66144;SHT31;52947;50.842;6.084;2024-03-23T16:44:02;6.70;86.43
66144;SHT31;52947;50.842;6.084;2024-03-23T16:46:29;6.58;87.19